createdAt,value
2019-06-01T00:00:11.522Z,0.00
2019-06-01T00:01:07.502Z,0.00
2019-06-01T00:02:07.502Z,0.00
2019-06-01T00:03:07.479Z,0.00
2019-06-01T00:04:07.498Z,0.00
2019-06-01T00:05:07.480Z,0.00
2019-06-01T00:06:07.452Z,0.00
2019-06-01T00:07:07.464Z,0.00
2019-06-01T00:08:07.420Z,0.00
2019-06-01T00:09:07.435Z,0.00
2019-06-01T00:10:07.413Z,0.00
2019-06-01T00:11:07.407Z,0.00
2019-06-01T00:12:07.394Z,0.00
2019-06-01T00:13:07.367Z,0.00
2019-06-01T00:14:07.360Z,0.00
2019-06-01T00:15:07.365Z,0.00
2019-06-01T00:16:07.364Z,0.00
2019-06-01T00:17:07.332Z,0.00
2019-06-01T00:18:07.324Z,0.00
2019-06-01T00:19:07.340Z,0.00
2019-06-01T00:20:07.337Z,0.00
2019-06-01T00:21:07.279Z,0.00
2019-06-01T00:22:07.270Z,0.00
2019-06-01T00:23:07.273Z,0.00
2019-06-01T00:24:07.255Z,0.00
2019-06-01T00:25:07.277Z,0.00
2019-06-01T00:26:07.232Z,0.00
2019-06-01T00:27:07.215Z,0.00
2019-06-01T00:28:07.212Z,0.00
2019-06-01T00:29:07.211Z,0.00
2019-06-01T00:30:07.219Z,0.00
2019-06-01T00:31:07.173Z,0.00
2019-06-01T00:32:07.171Z,0.00
2019-06-01T00:33:07.154Z,0.00
2019-06-01T00:34:07.154Z,0.00
2019-06-01T00:35:07.162Z,0.00
2019-06-01T00:36:07.133Z,0.00
2019-06-01T00:37:07.110Z,0.00
2019-06-01T00:38:07.104Z,0.00
2019-06-01T00:39:07.085Z,0.00
2019-06-01T00:40:07.120Z,0.00
2019-06-01T00:41:07.094Z,0.00
2019-06-01T00:42:07.073Z,0.00
2019-06-01T00:43:07.049Z,0.00
2019-06-01T00:44:07.030Z,0.00
2019-06-01T00:45:07.040Z,0.00
2019-06-01T00:46:07.024Z,0.00
2019-06-01T00:47:07.025Z,0.00
2019-06-01T00:48:06.992Z,0.00
2019-06-01T00:49:06.979Z,0.00
2019-06-01T00:50:06.985Z,0.00
2019-06-01T00:51:06.958Z,0.00
2019-06-01T00:52:06.965Z,0.00
2019-06-01T00:53:06.964Z,0.00
2019-06-01T00:54:06.924Z,0.00
2019-06-01T00:55:06.941Z,0.00
2019-06-01T00:56:06.915Z,0.00
2019-06-01T00:57:06.897Z,0.00
2019-06-01T00:58:06.924Z,0.00
2019-06-01T00:59:06.912Z,0.00
2019-06-01T01:00:06.882Z,0.00
2019-06-01T01:01:06.862Z,0.00
2019-06-01T01:02:06.854Z,0.00
2019-06-01T01:03:06.834Z,0.00
2019-06-01T01:04:06.849Z,0.00
2019-06-01T01:05:06.830Z,0.00
2019-06-01T01:06:06.795Z,0.00
2019-06-01T01:07:06.793Z,0.00
2019-06-01T01:08:06.773Z,0.00
2019-06-01T01:09:06.830Z,0.00
2019-06-01T01:10:06.779Z,0.00
2019-06-01T01:11:06.754Z,0.00
2019-06-01T01:12:06.732Z,0.00
2019-06-01T01:13:06.723Z,0.00
2019-06-01T01:14:06.724Z,0.00
2019-06-01T01:15:06.755Z,0.00
2019-06-01T01:16:06.696Z,0.00
2019-06-01T01:17:06.683Z,0.00
2019-06-01T01:18:06.681Z,0.00
2019-06-01T01:19:06.658Z,0.00
2019-06-01T01:20:06.716Z,0.00
2019-06-01T01:21:06.655Z,0.00
2019-06-01T01:22:06.638Z,0.00
2019-06-01T01:23:06.614Z,0.00
2019-06-01T01:24:06.613Z,0.00
2019-06-01T01:25:06.590Z,0.00
2019-06-01T01:26:06.614Z,0.00
2019-06-01T01:27:06.595Z,0.00
2019-06-01T01:28:06.563Z,0.00
2019-06-01T01:29:06.546Z,0.00
2019-06-01T01:30:06.537Z,0.00
2019-06-01T01:31:13.837Z,0.00
2019-06-01T01:32:07.518Z,0.00
2019-06-01T01:33:06.502Z,0.00
2019-06-01T01:34:06.494Z,0.00
2019-06-01T01:35:06.480Z,0.00
2019-06-01T01:36:06.486Z,0.00
2019-06-01T01:37:06.459Z,0.00
2019-06-01T01:38:06.447Z,0.00
2019-06-01T01:39:06.449Z,0.00
2019-06-01T01:40:06.433Z,0.00
2019-06-01T01:41:06.437Z,0.00
2019-06-01T01:42:06.424Z,0.00
2019-06-01T01:43:06.409Z,0.00
2019-06-01T01:44:06.412Z,0.00
2019-06-01T01:45:06.396Z,0.00
2019-06-01T01:46:06.389Z,0.00
2019-06-01T01:47:06.366Z,0.00
2019-06-01T01:48:06.346Z,0.00
2019-06-01T01:49:06.337Z,0.00
2019-06-01T01:50:06.356Z,0.00
2019-06-01T01:51:06.332Z,0.00
2019-06-01T01:52:06.298Z,0.00
2019-06-01T01:53:06.288Z,0.00
2019-06-01T01:54:06.283Z,0.00
2019-06-01T01:55:06.277Z,0.00
2019-06-01T01:56:06.294Z,0.00
2019-06-01T01:57:07.237Z,0.00
2019-06-01T01:58:06.230Z,0.00
2019-06-01T01:59:06.220Z,0.00
2019-06-01T02:00:06.227Z,0.00
2019-06-01T02:01:21.454Z,0.00
2019-06-01T02:02:07.190Z,0.00
2019-06-01T02:03:06.176Z,0.00
2019-06-01T02:04:06.167Z,0.00
2019-06-01T02:05:06.163Z,0.00
2019-06-01T02:06:06.161Z,0.00
2019-06-01T02:07:06.150Z,0.00
2019-06-01T02:08:06.132Z,0.00
2019-06-01T02:09:06.109Z,0.00
2019-06-01T02:10:06.105Z,0.00
2019-06-01T02:11:06.108Z,4.00
2019-06-01T02:12:06.096Z,4.00
2019-06-01T02:13:06.080Z,4.00
2019-06-01T02:14:06.074Z,4.00
2019-06-01T02:15:06.056Z,0.00
2019-06-01T02:16:06.059Z,4.00
2019-06-01T02:17:06.033Z,4.00
2019-06-01T02:18:06.031Z,4.00
2019-06-01T02:19:06.008Z,4.00
2019-06-01T02:20:05.991Z,4.00
2019-06-01T02:21:06.022Z,8.00
2019-06-01T02:22:05.977Z,4.00
2019-06-01T02:23:05.977Z,8.00
2019-06-01T02:24:05.966Z,8.00
2019-06-01T02:25:05.957Z,8.00
2019-06-01T02:26:05.955Z,8.00
2019-06-01T02:27:05.921Z,12.00
2019-06-01T02:28:05.911Z,16.00
2019-06-01T02:29:05.902Z,12.00
2019-06-01T02:30:05.911Z,16.00
2019-06-01T02:31:05.916Z,20.00
2019-06-01T02:32:06.686Z,20.00
2019-06-01T02:33:05.860Z,24.00
2019-06-01T02:34:06.223Z,28.00
2019-06-01T02:35:05.853Z,32.00
2019-06-01T02:36:05.856Z,36.00
2019-06-01T02:37:05.826Z,40.00
2019-06-01T02:38:06.076Z,44.00
2019-06-01T02:39:05.787Z,52.00
2019-06-01T02:40:05.809Z,52.00
2019-06-01T02:41:05.882Z,60.00
2019-06-01T02:42:05.776Z,64.00
2019-06-01T02:43:06.773Z,68.00
2019-06-01T02:44:06.382Z,76.00
2019-06-01T02:45:05.923Z,84.00
2019-06-01T02:46:07.414Z,92.00
2019-06-01T02:47:06.339Z,96.00
2019-06-01T02:48:06.264Z,100.00
2019-06-01T02:49:06.288Z,108.00
2019-06-01T02:50:06.385Z,116.00
2019-06-01T02:51:05.657Z,120.00
2019-06-01T02:52:05.667Z,128.00
2019-06-01T02:53:05.816Z,136.00
2019-06-01T02:54:06.266Z,144.00
2019-06-01T02:55:06.455Z,156.00
2019-06-01T02:56:06.210Z,160.00
2019-06-01T02:57:06.218Z,172.00
2019-06-01T02:58:06.682Z,180.00
2019-06-01T02:59:06.771Z,188.00
2019-06-01T03:00:06.738Z,200.00
2019-06-01T03:01:06.921Z,208.00
2019-06-01T03:02:10.808Z,224.00
2019-06-01T03:03:06.950Z,232.00
2019-06-01T03:04:05.528Z,248.00
2019-06-01T03:05:05.618Z,260.00
2019-06-01T03:06:05.649Z,276.00
2019-06-01T03:07:07.084Z,288.00
2019-06-01T03:08:05.496Z,304.00
2019-06-01T03:09:06.688Z,320.00
2019-06-01T03:10:05.498Z,336.00
2019-06-01T03:11:05.985Z,352.00
2019-06-01T03:12:06.348Z,368.00
2019-06-01T03:13:06.203Z,384.00
2019-06-01T03:14:06.625Z,404.00
2019-06-01T03:15:06.475Z,424.00
2019-06-01T03:16:06.573Z,440.00
2019-06-01T03:17:05.910Z,460.00
2019-06-01T03:18:05.683Z,480.00
2019-06-01T03:19:05.970Z,500.00
2019-06-01T03:20:06.263Z,524.00
2019-06-01T03:21:06.355Z,544.00
2019-06-01T03:22:06.878Z,564.00
2019-06-01T03:23:05.757Z,584.00
2019-06-01T03:24:05.965Z,608.00
2019-06-01T03:25:05.928Z,628.00
2019-06-01T03:26:06.260Z,648.00
2019-06-01T03:27:06.325Z,668.00
2019-06-01T03:28:06.231Z,688.00
2019-06-01T03:29:07.140Z,704.00
2019-06-01T03:30:06.662Z,728.00
2019-06-01T03:31:06.378Z,748.00
2019-06-01T03:32:24.089Z,768.00
2019-06-01T03:33:08.618Z,788.00
2019-06-01T03:34:06.923Z,812.00
2019-06-01T03:35:05.185Z,836.00
2019-06-01T03:36:05.180Z,856.00
2019-06-01T03:37:05.160Z,876.00
2019-06-01T03:38:05.171Z,900.00
2019-06-01T03:39:06.087Z,920.00
2019-06-01T03:40:09.609Z,940.00
2019-06-01T03:41:06.190Z,960.00
2019-06-01T03:42:05.262Z,980.00
2019-06-01T03:43:05.102Z,1000.00
2019-06-01T03:44:06.211Z,1016.00
2019-06-01T03:45:05.538Z,1032.00
2019-06-01T03:46:05.070Z,1048.00
2019-06-01T03:47:05.660Z,1064.00
2019-06-01T03:48:05.053Z,1084.00
2019-06-01T03:49:05.755Z,1112.00
2019-06-01T03:50:05.048Z,1132.00
2019-06-01T03:51:05.680Z,1156.00
2019-06-01T03:52:05.009Z,1180.00
2019-06-01T03:53:05.813Z,1200.00
2019-06-01T03:54:06.407Z,1220.00
2019-06-01T03:55:05.888Z,1236.00
2019-06-01T03:56:05.037Z,1260.00
2019-06-01T03:57:05.347Z,1280.00
2019-06-01T03:58:05.092Z,1296.00
2019-06-01T03:59:05.154Z,1316.00
2019-06-01T04:00:05.050Z,1340.00
2019-06-01T04:01:05.218Z,1356.00
2019-06-01T04:02:05.127Z,1376.00
2019-06-01T04:03:05.086Z,1392.00
2019-06-01T04:04:05.089Z,1428.00
2019-06-01T04:05:05.631Z,1452.00
2019-06-01T04:06:05.337Z,1484.00
2019-06-01T04:07:06.195Z,1520.00
2019-06-01T04:08:05.600Z,1552.00
2019-06-01T04:09:05.585Z,1596.00
2019-06-01T04:10:05.735Z,1632.00
2019-06-01T04:11:05.649Z,1660.00
2019-06-01T04:12:05.494Z,1680.00
2019-06-01T04:13:05.592Z,1696.00
2019-06-01T04:14:05.613Z,1708.00
2019-06-01T04:15:10.227Z,1720.00
2019-06-01T04:16:05.896Z,1744.00
2019-06-01T04:17:06.020Z,1768.00
2019-06-01T04:18:05.973Z,1788.00
2019-06-01T04:19:05.896Z,1804.00
2019-06-01T04:20:05.924Z,1824.00
2019-06-01T04:21:05.921Z,1852.00
2019-06-01T04:22:05.849Z,1896.00
2019-06-01T04:23:06.094Z,1928.00
2019-06-01T04:24:05.893Z,1968.00
2019-06-01T04:25:05.944Z,2008.00
2019-06-01T04:26:04.639Z,2044.00
2019-06-01T04:27:04.641Z,2100.00
2019-06-01T04:28:04.613Z,2144.00
2019-06-01T04:29:04.912Z,2192.00
2019-06-01T04:30:04.619Z,2248.00
2019-06-01T04:31:04.671Z,2296.00
2019-06-01T04:32:04.578Z,2348.00
2019-06-01T04:33:04.962Z,2380.00
2019-06-01T04:34:04.633Z,2412.00
2019-06-01T04:35:04.972Z,2432.00
2019-06-01T04:36:04.887Z,2464.00
2019-06-01T04:37:05.194Z,2528.00
2019-06-01T04:38:05.061Z,2608.00
2019-06-01T04:39:05.304Z,2692.00
2019-06-01T04:40:05.281Z,2752.00
2019-06-01T04:41:05.680Z,2760.00
2019-06-01T04:42:05.557Z,2784.00
2019-06-01T04:43:05.643Z,2820.00
2019-06-01T04:44:05.807Z,2880.00
2019-06-01T04:45:04.453Z,2924.00
2019-06-01T04:46:04.433Z,3012.00
2019-06-01T04:47:04.453Z,3088.00
2019-06-01T04:48:04.494Z,3088.00
2019-06-01T04:49:04.442Z,3128.00
2019-06-01T04:50:04.590Z,3176.00
2019-06-01T04:51:04.598Z,3224.00
2019-06-01T04:52:04.663Z,3204.00
2019-06-01T04:53:04.692Z,3188.00
2019-06-01T04:54:04.840Z,3112.00
2019-06-01T04:55:05.199Z,3180.00
2019-06-01T04:56:04.814Z,3216.00
2019-06-01T04:57:04.777Z,3264.00
2019-06-01T04:58:04.643Z,3316.00
2019-06-01T04:59:04.900Z,3380.00
2019-06-01T05:00:10.035Z,3432.00
2019-06-01T05:01:05.258Z,3452.00
2019-06-01T05:02:05.571Z,3468.00
2019-06-01T05:03:06.796Z,3580.00
2019-06-01T05:04:04.942Z,3684.00
2019-06-01T05:05:04.877Z,3828.00
2019-06-01T05:06:05.056Z,4000.00
2019-06-01T05:07:05.049Z,4196.00
2019-06-01T05:08:05.165Z,4364.00
2019-06-01T05:09:05.200Z,4472.00
2019-06-01T05:10:05.164Z,4496.00
2019-06-01T05:11:06.577Z,4444.00
2019-06-01T05:12:05.251Z,4532.00
2019-06-01T05:13:05.301Z,4636.00
2019-06-01T05:14:05.369Z,4528.00
2019-06-01T05:15:04.113Z,4544.00
2019-06-01T05:16:04.158Z,4576.00
2019-06-01T05:17:04.091Z,4668.00
2019-06-01T05:18:04.084Z,4788.00
2019-06-01T05:19:04.076Z,4924.00
2019-06-01T05:20:04.053Z,5152.00
2019-06-01T05:21:04.075Z,5284.00
2019-06-01T05:22:04.041Z,5440.00
2019-06-01T05:23:04.069Z,5296.00
2019-06-01T05:24:04.017Z,5356.00
2019-06-01T05:25:04.020Z,5572.00
2019-06-01T05:26:04.021Z,5436.00
2019-06-01T05:27:03.990Z,5452.00
2019-06-01T05:28:03.975Z,5204.00
2019-06-01T05:29:03.955Z,5008.00
2019-06-01T05:30:03.964Z,5200.00
2019-06-01T05:31:03.964Z,4996.00
2019-06-01T05:32:03.929Z,4848.00
2019-06-01T05:33:03.927Z,4924.00
2019-06-01T05:34:03.903Z,4856.00
2019-06-01T05:35:03.895Z,4668.00
2019-06-01T05:36:03.905Z,4736.00
2019-06-01T05:37:03.878Z,4564.00
2019-06-01T05:38:03.883Z,4708.00
2019-06-01T05:39:03.865Z,4496.00
2019-06-01T05:40:03.852Z,4532.00
2019-06-01T05:41:03.855Z,4636.00
2019-06-01T05:42:03.835Z,4696.00
2019-06-01T05:43:03.813Z,4796.00
2019-06-01T05:44:03.817Z,5088.00
2019-06-01T05:45:03.801Z,5180.00
2019-06-01T05:46:03.921Z,5324.00
2019-06-01T05:47:03.784Z,5148.00
2019-06-01T05:48:03.785Z,5196.00
2019-06-01T05:49:03.745Z,5284.00
2019-06-01T05:50:03.738Z,5180.00
2019-06-01T05:51:03.745Z,5796.00
2019-06-01T05:52:03.749Z,5828.00
2019-06-01T05:53:03.709Z,6080.00
2019-06-01T05:54:03.699Z,6140.00
2019-06-01T05:55:03.684Z,6020.00
2019-06-01T05:56:03.689Z,6196.00
2019-06-01T05:57:03.661Z,6192.00
2019-06-01T05:58:03.651Z,5996.00
2019-06-01T05:59:03.648Z,6096.00
2019-06-01T06:00:03.642Z,6012.00
2019-06-01T06:01:03.640Z,5936.00
2019-06-01T06:02:03.603Z,5260.00
2019-06-01T06:03:03.597Z,4724.00
2019-06-01T06:04:03.593Z,5112.00
2019-06-01T06:05:12.541Z,6124.00
2019-06-01T06:06:03.586Z,7156.00
2019-06-01T06:07:03.555Z,6812.00
2019-06-01T06:08:03.557Z,6524.00
2019-06-01T06:09:03.531Z,7052.00
2019-06-01T06:10:03.568Z,6896.00
2019-06-01T06:11:03.525Z,5292.00
2019-06-01T06:12:03.503Z,4544.00
2019-06-01T06:13:03.499Z,4128.00
2019-06-01T06:14:03.478Z,4380.00
2019-06-01T06:15:03.486Z,5220.00
2019-06-01T06:16:03.485Z,5172.00
2019-06-01T06:17:03.521Z,4732.00
2019-06-01T06:18:03.442Z,5112.00
2019-06-01T06:19:03.429Z,5720.00
2019-06-01T06:20:03.413Z,5516.00
2019-06-01T06:21:03.431Z,6328.00
2019-06-01T06:22:03.415Z,5736.00
2019-06-01T06:23:03.386Z,4996.00
2019-06-01T06:24:03.372Z,4380.00
2019-06-01T06:25:03.391Z,4856.00
2019-06-01T06:26:03.357Z,5192.00
2019-06-01T06:27:03.362Z,5016.00
2019-06-01T06:28:03.329Z,4976.00
2019-06-01T06:29:03.340Z,5232.00
2019-06-01T06:30:03.316Z,4768.00
2019-06-01T06:31:03.305Z,4996.00
2019-06-01T06:32:03.342Z,5428.00
2019-06-01T06:33:03.277Z,5024.00
2019-06-01T06:34:03.272Z,5232.00
2019-06-01T06:35:03.255Z,5480.00
2019-06-01T06:36:03.255Z,5916.00
2019-06-01T06:37:03.293Z,5776.00
2019-06-01T06:38:03.219Z,5856.00
2019-06-01T06:39:04.762Z,4940.00
2019-06-01T06:40:03.213Z,4988.00
2019-06-01T06:41:03.203Z,5316.00
2019-06-01T06:42:03.254Z,4984.00
2019-06-01T06:43:03.173Z,4728.00
2019-06-01T06:44:03.204Z,4712.00
2019-06-01T06:45:03.801Z,5380.00
2019-06-01T06:46:03.138Z,5300.00
2019-06-01T06:47:03.146Z,5816.00
2019-06-01T06:48:03.146Z,6464.00
2019-06-01T06:49:03.108Z,5944.00
2019-06-01T06:50:03.141Z,5472.00
2019-06-01T06:51:03.085Z,5380.00
2019-06-01T06:52:03.163Z,5548.00
2019-06-01T06:53:03.065Z,6032.00
2019-06-01T06:54:03.059Z,5444.00
2019-06-01T06:55:03.043Z,5216.00
2019-06-01T06:56:03.034Z,5032.00
2019-06-01T06:57:03.048Z,4948.00
2019-06-01T06:58:03.026Z,5256.00
2019-06-01T06:59:03.007Z,5860.00
2019-06-01T07:00:02.992Z,5716.00
2019-06-01T07:01:02.974Z,5404.00
2019-06-01T07:02:03.163Z,5188.00
2019-06-01T07:03:02.973Z,4564.00
2019-06-01T07:04:12.347Z,4628.00
2019-06-01T07:05:03.969Z,4772.00
2019-06-01T07:06:02.923Z,4852.00
2019-06-01T07:07:02.962Z,4572.00
2019-06-01T07:08:02.906Z,4412.00
2019-06-01T07:09:02.935Z,4268.00
2019-06-01T07:10:02.897Z,4304.00
2019-06-01T07:11:02.904Z,4244.00
2019-06-01T07:12:02.880Z,4140.00
2019-06-01T07:13:02.878Z,4116.00
2019-06-01T07:14:02.857Z,4360.00
2019-06-01T07:15:02.848Z,4492.00
2019-06-01T07:16:03.946Z,5488.00
2019-06-01T07:17:02.841Z,5588.00
2019-06-01T07:18:02.790Z,4168.00
2019-06-01T07:19:02.799Z,3724.00
2019-06-01T07:20:02.794Z,3728.00
2019-06-01T07:21:02.767Z,4092.00
2019-06-01T07:22:02.779Z,4108.00
2019-06-01T07:23:02.764Z,4112.00
2019-06-01T07:24:02.738Z,4192.00
2019-06-01T07:25:02.720Z,4320.00
2019-06-01T07:26:02.714Z,4268.00
2019-06-01T07:27:02.754Z,4220.00
2019-06-01T07:28:02.718Z,4324.00
2019-06-01T07:29:02.730Z,4448.00
2019-06-01T07:30:02.666Z,4864.00
2019-06-01T07:31:02.649Z,5952.00
2019-06-01T07:32:02.689Z,7064.00
2019-06-01T07:33:02.729Z,8144.00
2019-06-01T07:34:02.718Z,8060.00
2019-06-01T07:35:02.677Z,5560.00
2019-06-01T07:36:02.606Z,4384.00
2019-06-01T07:37:02.588Z,4464.00
2019-06-01T07:38:02.632Z,5180.00
2019-06-01T07:39:02.573Z,4780.00
2019-06-01T07:40:02.600Z,5412.00
2019-06-01T07:41:02.544Z,5232.00
2019-06-01T07:42:02.610Z,4608.00
2019-06-01T07:43:02.627Z,4448.00
2019-06-01T07:44:02.526Z,5488.00
2019-06-01T07:45:02.547Z,4576.00
2019-06-01T07:46:02.497Z,4668.00
2019-06-01T07:47:02.491Z,4836.00
2019-06-01T07:48:02.509Z,5028.00
2019-06-01T07:49:02.470Z,5072.00
2019-06-01T07:50:02.463Z,5120.00
2019-06-01T07:51:02.447Z,5108.00
2019-06-01T07:52:12.120Z,5196.00
2019-06-01T07:53:03.710Z,5152.00
2019-06-01T07:54:02.418Z,5468.00
2019-06-01T07:55:02.405Z,5608.00
2019-06-01T07:56:02.392Z,5712.00
2019-06-01T07:57:02.434Z,5644.00
2019-06-01T07:58:02.391Z,5992.00
2019-06-01T07:59:02.369Z,6264.00
2019-06-01T08:00:02.353Z,6056.00
2019-06-01T08:01:02.350Z,6024.00
2019-06-01T08:02:02.378Z,6660.00
2019-06-01T08:03:02.353Z,6560.00
2019-06-01T08:04:02.302Z,6848.00
2019-06-01T08:05:02.302Z,6760.00
2019-06-01T08:06:02.301Z,6908.00
2019-06-01T08:07:02.351Z,6880.00
2019-06-01T08:08:02.522Z,6960.00
2019-06-01T08:09:02.248Z,7008.00
2019-06-01T08:10:02.232Z,7036.00
2019-06-01T08:11:02.235Z,7536.00
2019-06-01T08:12:02.328Z,7560.00
2019-06-01T08:13:02.214Z,7380.00
2019-06-01T08:14:02.225Z,8196.00
2019-06-01T08:15:02.212Z,9628.00
2019-06-01T08:16:02.179Z,8340.00
2019-06-01T08:17:02.166Z,7720.00
2019-06-01T08:18:02.178Z,7560.00
2019-06-01T08:19:02.159Z,6932.00
2019-06-01T08:20:02.152Z,7220.00
2019-06-01T08:21:02.120Z,7332.00
2019-06-01T08:22:02.121Z,7520.00
2019-06-01T08:23:02.130Z,7672.00
2019-06-01T08:24:02.447Z,7832.00
2019-06-01T08:25:02.089Z,7524.00
2019-06-01T08:26:02.066Z,7344.00
2019-06-01T08:27:02.059Z,7300.00
2019-06-01T08:28:02.064Z,7284.00
2019-06-01T08:29:02.034Z,7436.00
2019-06-01T08:30:02.039Z,7476.00
2019-06-01T08:31:02.085Z,7432.00
2019-06-01T08:32:02.002Z,7464.00
2019-06-01T08:33:02.044Z,7520.00
2019-06-01T08:34:02.004Z,7548.00
2019-06-01T08:35:08.689Z,7620.00
2019-06-01T08:36:02.972Z,7748.00
2019-06-01T08:37:01.967Z,7964.00
2019-06-01T08:38:01.996Z,8324.00
2019-06-01T08:39:02.022Z,8468.00
2019-06-01T08:40:01.916Z,8684.00
2019-06-01T08:41:01.912Z,8368.00
2019-06-01T08:42:01.905Z,7840.00
2019-06-01T08:43:01.914Z,7384.00
2019-06-01T08:44:01.874Z,7368.00
2019-06-01T08:45:01.871Z,6576.00
2019-06-01T08:46:01.938Z,6384.00
2019-06-01T08:47:01.841Z,6360.00
2019-06-01T08:48:01.858Z,6412.00
2019-06-01T08:49:01.914Z,6476.00
2019-06-01T08:50:01.814Z,6236.00
2019-06-01T08:51:01.877Z,6356.00
2019-06-01T08:52:01.797Z,6612.00
2019-06-01T08:53:01.860Z,6672.00
2019-06-01T08:54:01.789Z,6452.00
2019-06-01T08:55:01.791Z,6292.00
2019-06-01T08:56:01.743Z,6360.00
2019-06-01T08:57:01.755Z,6516.00
2019-06-01T08:58:01.762Z,6764.00
2019-06-01T08:59:01.750Z,6556.00
2019-06-01T09:00:01.737Z,6500.00
2019-06-01T09:01:01.698Z,6552.00
2019-06-01T09:02:01.688Z,6776.00
2019-06-01T09:03:01.680Z,6952.00
2019-06-01T09:04:01.696Z,7060.00
2019-06-01T09:05:01.664Z,7448.00
2019-06-01T09:06:01.673Z,7660.00
2019-06-01T09:07:01.665Z,7600.00
2019-06-01T09:08:01.619Z,7676.00
2019-06-01T09:09:03.232Z,7536.00
2019-06-01T09:10:01.619Z,7372.00
2019-06-01T09:11:01.602Z,7312.00
2019-06-01T09:12:01.609Z,7096.00
2019-06-01T09:13:01.632Z,7240.00
2019-06-01T09:14:01.621Z,7012.00
2019-06-01T09:15:01.562Z,7328.00
2019-06-01T09:16:01.533Z,7020.00
2019-06-01T09:17:01.538Z,6828.00
2019-06-01T09:18:01.569Z,6884.00
2019-06-01T09:19:01.542Z,7088.00
2019-06-01T09:20:01.521Z,7296.00
2019-06-01T09:21:01.520Z,7816.00
2019-06-01T09:22:01.488Z,8136.00
2019-06-01T09:23:01.476Z,8500.00
2019-06-01T09:24:01.447Z,8712.00
2019-06-01T09:25:01.478Z,8768.00
2019-06-01T09:26:01.433Z,9580.00
2019-06-01T09:27:11.357Z,9224.00
2019-06-01T09:28:01.417Z,8080.00
2019-06-01T09:29:01.416Z,9312.00
2019-06-01T09:30:01.856Z,9028.00
2019-06-01T09:31:01.368Z,9160.00
2019-06-01T09:32:01.367Z,9696.00
2019-06-01T09:33:01.436Z,10696.00
2019-06-01T09:34:01.505Z,10440.00
2019-06-01T09:35:01.468Z,10596.00
2019-06-01T09:36:01.375Z,11364.00
2019-06-01T09:37:01.307Z,10868.00
2019-06-01T09:38:01.306Z,11304.00
2019-06-01T09:39:01.357Z,9896.00
2019-06-01T09:40:01.300Z,8716.00
2019-06-01T09:41:01.357Z,8748.00
2019-06-01T09:42:01.302Z,9044.00
2019-06-01T09:43:01.331Z,10296.00
2019-06-01T09:44:01.306Z,9904.00
2019-06-01T09:45:01.235Z,10140.00
2019-06-01T09:46:01.366Z,10676.00
2019-06-01T09:47:01.231Z,10400.00
2019-06-01T09:48:01.196Z,10200.00
2019-06-01T09:49:01.206Z,11072.00
2019-06-01T09:50:01.209Z,11240.00
2019-06-01T09:51:01.342Z,10772.00
2019-06-01T09:52:01.186Z,10504.00
2019-06-01T09:53:01.177Z,9648.00
2019-06-01T09:54:01.136Z,9272.00
2019-06-01T09:55:01.135Z,10372.00
2019-06-01T09:56:01.135Z,9036.00
2019-06-01T09:57:01.106Z,10288.00
2019-06-01T09:58:01.111Z,10672.00
2019-06-01T09:59:01.117Z,10628.00
2019-06-01T10:00:01.198Z,10300.00
2019-06-01T10:01:01.059Z,11084.00
2019-06-01T10:02:01.080Z,10344.00
2019-06-01T10:03:01.050Z,11024.00
2019-06-01T10:04:01.034Z,11980.00
2019-06-01T10:05:01.018Z,10980.00
2019-06-01T10:06:15.706Z,12064.00
2019-06-01T10:07:01.038Z,13504.00
2019-06-01T10:08:34.512Z,13840.00
2019-06-01T10:09:02.016Z,14292.00
2019-06-01T10:10:01.852Z,13388.00
2019-06-01T10:11:01.105Z,14300.00
2019-06-01T10:12:00.963Z,11992.00
2019-06-01T10:13:00.972Z,11044.00
2019-06-01T10:14:03.007Z,10008.00
2019-06-01T10:16:03.174Z,11392.00
2019-06-01T10:17:00.892Z,12508.00
2019-06-01T10:18:00.898Z,11176.00
2019-06-01T10:20:02.010Z,13316.00
2019-06-01T10:21:00.861Z,13748.00
2019-06-01T10:22:00.831Z,15340.00
2019-06-01T10:23:00.820Z,13308.00
2019-06-01T10:24:00.866Z,10592.00
2019-06-01T10:25:00.805Z,11716.00
2019-06-01T10:26:00.793Z,12072.00
2019-06-01T10:27:00.796Z,12612.00
2019-06-01T10:28:00.798Z,13188.00
2019-06-01T10:29:00.777Z,12488.00
2019-06-01T10:30:00.741Z,11196.00
2019-06-01T10:31:00.747Z,9476.00
2019-06-01T10:32:00.734Z,10744.00
2019-06-01T10:33:00.734Z,11716.00
2019-06-01T10:34:00.767Z,11260.00
2019-06-01T10:35:00.694Z,11252.00
2019-06-01T10:36:18.649Z,10784.00
2019-06-01T10:37:01.678Z,11192.00
2019-06-01T10:38:00.666Z,12512.00
2019-06-01T10:39:00.664Z,12792.00
2019-06-01T10:40:00.677Z,12360.00
2019-06-01T10:41:00.631Z,12204.00
2019-06-01T10:42:00.630Z,12500.00
2019-06-01T10:43:00.612Z,11584.00
2019-06-01T10:44:00.600Z,10292.00
2019-06-01T10:45:00.607Z,12204.00
2019-06-01T10:46:00.580Z,13220.00
2019-06-01T10:47:00.577Z,12276.00
2019-06-01T10:48:00.574Z,9704.00
2019-06-01T10:49:00.547Z,9536.00
2019-06-01T10:50:00.551Z,10624.00
2019-06-01T10:51:00.535Z,10472.00
2019-06-01T10:52:00.520Z,8952.00
2019-06-01T10:53:00.521Z,8624.00
2019-06-01T10:54:00.505Z,8864.00
2019-06-01T10:55:00.506Z,8884.00
2019-06-01T10:56:00.481Z,10048.00
2019-06-01T10:57:00.462Z,12332.00
2019-06-01T10:58:00.478Z,13416.00
2019-06-01T10:59:00.808Z,13400.00
2019-06-01T11:00:00.459Z,13424.00
2019-06-01T11:01:00.430Z,11864.00
2019-06-01T11:02:00.416Z,14340.00
2019-06-01T11:03:00.434Z,14468.00
2019-06-01T11:04:00.392Z,11316.00
2019-06-01T11:05:00.407Z,12140.00
2019-06-01T11:06:00.363Z,10704.00
2019-06-01T11:07:00.384Z,13208.00
2019-06-01T11:08:00.366Z,14832.00
2019-06-01T11:09:00.338Z,16572.00
2019-06-01T11:10:00.364Z,23200.00
2019-06-01T11:11:00.312Z,63072.00
2019-06-01T11:12:00.304Z,91200.00
2019-06-01T11:13:00.305Z,89824.00
2019-06-01T11:14:00.283Z,90752.00
2019-06-01T11:15:00.321Z,91264.00
2019-06-01T11:16:00.265Z,89952.00
2019-06-01T11:17:00.562Z,93536.00
2019-06-01T11:18:00.248Z,94880.00
2019-06-01T11:19:00.236Z,92864.00
2019-06-01T11:20:00.247Z,94912.00
2019-06-01T11:21:00.210Z,80384.00
2019-06-01T11:22:00.208Z,90688.00
2019-06-01T11:23:00.193Z,89888.00
2019-06-01T11:24:00.186Z,93728.00
2019-06-01T11:25:00.226Z,97120.00
2019-06-01T11:26:00.185Z,100096.00
2019-06-01T11:27:00.167Z,98784.00
2019-06-01T11:28:00.152Z,99744.00
2019-06-01T11:29:00.156Z,101568.00
2019-06-01T11:30:00.156Z,50496.00
2019-06-01T11:31:00.129Z,95168.00
2019-06-01T11:32:00.122Z,97440.00
2019-06-01T11:33:00.123Z,100480.00
2019-06-01T11:34:00.094Z,92832.00
2019-06-01T11:35:00.126Z,10644.00
2019-06-01T11:36:00.082Z,19968.00
2019-06-01T11:37:05.414Z,99360.00
2019-06-01T11:38:01.064Z,99104.00
2019-06-01T11:39:00.067Z,84992.00
2019-06-01T11:40:00.079Z,94016.00
2019-06-01T11:41:00.093Z,79072.00
2019-06-01T11:42:00.034Z,86912.00
2019-06-01T11:43:00.017Z,95872.00
2019-06-01T11:44:00.057Z,18944.00
2019-06-01T11:45:00.002Z,11352.00
2019-06-01T11:46:00.023Z,11732.00
2019-06-01T11:46:59.986Z,12292.00
2019-06-01T11:47:59.986Z,9624.00
2019-06-01T11:48:59.980Z,10772.00
2019-06-01T11:49:59.952Z,95360.00
2019-06-01T11:50:59.968Z,91392.00
2019-06-01T11:51:59.934Z,62208.00
2019-06-01T11:52:59.921Z,89728.00
2019-06-01T11:53:59.913Z,90016.00
2019-06-01T11:54:59.937Z,90464.00
2019-06-01T11:55:59.895Z,19392.00
2019-06-01T11:56:59.905Z,11344.00
2019-06-01T11:57:59.902Z,93184.00
2019-06-01T11:58:59.876Z,94304.00
2019-06-01T11:59:59.864Z,89344.00
2019-06-01T12:00:59.863Z,11852.00
2019-06-01T12:01:59.862Z,81376.00
2019-06-01T12:02:59.827Z,67808.00
2019-06-01T12:03:59.821Z,92544.00
2019-06-01T12:04:59.815Z,94336.00
2019-06-01T12:05:59.808Z,94208.00
2019-06-01T12:07:16.197Z,93824.00
2019-06-01T12:08:00.801Z,92960.00
2019-06-01T12:08:59.785Z,93824.00
2019-06-01T12:09:59.767Z,86784.00
2019-06-01T12:10:59.764Z,87936.00
2019-06-01T12:11:59.776Z,87776.00
2019-06-01T12:12:59.735Z,87264.00
2019-06-01T12:13:59.739Z,89184.00
2019-06-01T12:14:59.719Z,88192.00
2019-06-01T12:15:59.716Z,86048.00
2019-06-01T12:18:00.727Z,89408.00
2019-06-01T12:18:59.719Z,92544.00
2019-06-01T12:19:59.677Z,93728.00